الصفحة الرئيسية
METAR-TAF:

METAR-TAF

مطار :

Glendale Municipal Airport

غلانديل, أريزونا, الولايات المتحدة

دائرة عرض: 33-31-38N, خط طول: 112-17-43W, ارتفاع: 325 متر

مراقبة الطقس الحالي

تاريخ ووقت الإصدار 1ساعة و 23 دقيقة قبل الساعة 02:50UTC
ريح 12 عقدة من الشرق/الشمال الشرقي تتزايد حتى 19 عقدة
درجة الحرارة 7°درجة مئوية
الرطوبة 100%
ضغط 1006 hPa
الرؤية: 11.3 كم
غيوم مفككة على ارتفاع 2000 قدم
ملبد بالغيوم على ارتفاع 4500 قدم
مطر

METAR: KGEU 220250Z 07012G19KT 7SM RA BKN020 OVC045 07/07 A2971 RMK LAST

زمن: 21:13 (04:13 UTC)


TAF: مفقودة

أرصاد الطقس والتوقعات من أكثر من 4000 مطار (تقارير الطقس للمطار METAR والتنبؤ بالطقس بالمطارTAF).

المحطات المتاحة هي النقط الصفراء والحمراء على الخريطة.

حرك المؤشر فوق النقطة لمعرفة اسم المحطة.

ثم انقر لمعرفة أرصاد وتوقعات الطقس.

لتغيير الخارطة: اضغط على الأزرار الخضراء مع رمز الصليب الأسود للتكبير. على الزر الأخضر مع شرطة للتصغير، أو على الأسهم الخضراء للخرائط المجاورة.


METAR-TAF: